createdAt,value
2022-11-30T00:01:14.446Z,13.37
2022-11-30T00:03:42.282Z,13.90
2022-11-30T00:06:13.109Z,13.03
2022-11-30T00:08:40.857Z,14.10
2022-11-30T00:11:12.932Z,15.43
2022-11-30T00:13:40.774Z,15.37
2022-11-30T00:16:08.792Z,13.97
2022-11-30T00:18:37.049Z,14.97
2022-11-30T00:21:08.684Z,14.20
2022-11-30T00:23:38.031Z,14.63
2022-11-30T00:26:07.291Z,14.33
2022-11-30T00:31:15.444Z,14.80
2022-11-30T00:33:43.507Z,14.33
2022-11-30T00:36:15.523Z,12.90
2022-11-30T00:38:43.243Z,13.10
2022-11-30T00:41:11.050Z,13.67
2022-11-30T00:43:38.987Z,13.27
2022-11-30T00:46:09.178Z,12.80
2022-11-30T00:48:38.431Z,13.17
2022-11-30T00:51:07.124Z,13.30
2022-11-30T00:53:34.846Z,14.13
2022-11-30T00:56:02.492Z,13.87
2022-11-30T00:58:30.236Z,12.73
2022-11-30T01:00:58.039Z,13.37
2022-11-30T01:03:25.841Z,12.90
2022-11-30T01:05:55.309Z,13.30
2022-11-30T01:08:23.166Z,14.40
2022-11-30T01:10:53.776Z,12.50
2022-11-30T01:13:21.476Z,13.40
2022-11-30T01:15:49.188Z,12.20
2022-11-30T01:18:17.427Z,12.83
2022-11-30T01:20:45.348Z,12.40
2022-11-30T01:23:14.431Z,12.97
2022-11-30T01:25:43.338Z,13.13
2022-11-30T01:28:11.384Z,13.80
2022-11-30T01:30:39.178Z,12.37
2022-11-30T01:33:07.018Z,13.90
2022-11-30T01:35:34.729Z,13.00
2022-11-30T01:38:02.408Z,13.13
2022-11-30T01:40:31.454Z,13.10
2022-11-30T01:42:59.164Z,12.77
2022-11-30T01:45:26.865Z,13.27
2022-11-30T01:47:56.439Z,12.93
2022-11-30T01:50:28.592Z,12.47
2022-11-30T01:52:57.738Z,12.20
2022-11-30T01:55:28.702Z,12.17
2022-11-30T01:58:00.140Z,12.27
2022-11-30T02:00:27.931Z,12.53
2022-11-30T02:03:00.925Z,11.37
2022-11-30T02:05:28.778Z,12.50
2022-11-30T02:07:57.119Z,11.63
2022-11-30T02:10:27.791Z,11.50
2022-11-30T02:13:13.966Z,11.60
2022-11-30T02:15:48.041Z,11.97
2022-11-30T02:18:19.287Z,11.27
2022-11-30T02:20:54.578Z,11.93
2022-11-30T02:23:41.448Z,11.70
2022-11-30T02:26:24.137Z,11.93
2022-11-30T02:31:36.933Z,12.13
2022-11-30T02:34:06.254Z,12.63
2022-11-30T02:36:34.328Z,12.10
2022-11-30T02:39:02.013Z,12.37
2022-11-30T02:41:38.212Z,11.63
2022-11-30T02:44:06.764Z,11.33
2022-11-30T02:46:44.408Z,12.50
2022-11-30T02:49:17.057Z,12.60
2022-11-30T02:51:45.783Z,12.80
2022-11-30T02:54:13.706Z,12.40
2022-11-30T02:56:41.361Z,12.87
2022-11-30T02:59:09.082Z,11.50
2022-11-30T03:01:38.511Z,11.57
2022-11-30T03:04:06.253Z,11.77
2022-11-30T03:06:33.960Z,11.20
2022-11-30T03:09:01.658Z,11.77
2022-11-30T03:11:29.418Z,11.87
2022-11-30T03:13:57.069Z,10.77
2022-11-30T03:16:24.782Z,11.57
2022-11-30T03:18:53.983Z,10.67
2022-11-30T03:21:21.703Z,11.37
2022-11-30T03:23:49.335Z,11.67
2022-11-30T03:26:17.268Z,11.70
2022-11-30T03:28:44.935Z,12.17
2022-11-30T03:31:12.936Z,11.03
2022-11-30T03:33:41.961Z,10.47
2022-11-30T03:36:12.635Z,10.60
2022-11-30T03:38:40.343Z,10.43
2022-11-30T03:41:09.733Z,11.43
2022-11-30T03:43:37.598Z,11.30
2022-11-30T03:46:06.313Z,11.00
2022-11-30T03:48:36.000Z,10.80
2022-11-30T03:51:04.338Z,11.10
2022-11-30T03:53:33.408Z,10.97
2022-11-30T03:56:02.982Z,10.17
2022-11-30T03:58:30.996Z,10.53
2022-11-30T04:01:03.020Z,10.20
2022-11-30T04:03:31.078Z,10.60
2022-11-30T04:05:59.223Z,11.33
2022-11-30T04:08:27.459Z,11.17
2022-11-30T04:10:57.644Z,11.23
2022-11-30T04:13:26.295Z,10.53
2022-11-30T04:15:55.165Z,10.67
2022-11-30T04:18:24.496Z,11.30
2022-11-30T04:20:52.809Z,10.73
2022-11-30T04:23:20.901Z,11.03
2022-11-30T04:25:48.998Z,11.07
2022-11-30T04:28:18.435Z,11.23
2022-11-30T04:30:47.514Z,11.60
2022-11-30T04:33:16.616Z,10.20
2022-11-30T04:35:46.888Z,10.20
2022-11-30T04:38:14.657Z,10.13
2022-11-30T04:40:42.365Z,11.23
2022-11-30T04:43:10.967Z,11.27
2022-11-30T04:45:40.390Z,11.43
2022-11-30T04:48:09.070Z,11.43
2022-11-30T04:50:37.298Z,11.90
2022-11-30T04:53:05.299Z,11.57
2022-11-30T04:55:33.101Z,11.70
2022-11-30T04:58:00.845Z,10.70
2022-11-30T05:00:28.579Z,10.97
2022-11-30T05:02:58.345Z,11.73
2022-11-30T05:05:26.051Z,10.93
2022-11-30T05:07:57.169Z,11.90
2022-11-30T05:10:25.845Z,11.30
2022-11-30T05:12:53.559Z,11.73
2022-11-30T05:15:21.665Z,11.33
2022-11-30T05:17:49.373Z,11.20
2022-11-30T05:20:18.582Z,10.57
2022-11-30T05:22:46.230Z,9.97
2022-11-30T05:25:14.031Z,12.10
2022-11-30T05:27:41.719Z,11.53
2022-11-30T05:30:11.057Z,11.33
2022-11-30T05:32:38.756Z,11.60
2022-11-30T05:35:07.039Z,11.37
2022-11-30T05:37:36.038Z,11.97
2022-11-30T05:40:03.720Z,10.83
2022-11-30T05:42:31.396Z,11.47
2022-11-30T05:44:59.144Z,11.47
2022-11-30T05:47:26.835Z,10.80
2022-11-30T05:49:54.546Z,10.70
2022-11-30T05:52:22.292Z,11.50
2022-11-30T05:54:51.401Z,10.53
2022-11-30T05:57:19.096Z,11.03
2022-11-30T05:59:46.756Z,10.47
2022-11-30T06:02:14.521Z,10.63
2022-11-30T06:04:42.240Z,11.13
2022-11-30T06:07:11.897Z,10.43
2022-11-30T06:09:39.756Z,11.63
2022-11-30T06:12:09.433Z,12.07
2022-11-30T06:14:37.151Z,11.23
2022-11-30T06:17:04.840Z,10.50
2022-11-30T06:19:32.519Z,11.43
2022-11-30T06:22:01.302Z,10.80
2022-11-30T06:24:29.008Z,12.33
2022-11-30T06:26:56.670Z,12.13
2022-11-30T06:32:19.813Z,12.03
2022-11-30T06:34:47.773Z,11.63
2022-11-30T06:37:15.706Z,11.07
2022-11-30T06:40:04.968Z,10.63
2022-11-30T06:42:31.231Z,11.43
2022-11-30T06:44:58.987Z,11.60
2022-11-30T06:47:28.293Z,11.00
2022-11-30T06:49:56.313Z,11.60
2022-11-30T06:52:23.949Z,11.10
2022-11-30T06:54:51.667Z,13.83
2022-11-30T06:57:19.411Z,15.10
2022-11-30T06:59:47.566Z,12.87
2022-11-30T07:02:18.464Z,13.60
2022-11-30T07:04:48.057Z,12.70
2022-11-30T07:07:15.911Z,13.13
2022-11-30T07:09:43.579Z,12.20
2022-11-30T07:12:11.305Z,11.90
2022-11-30T07:14:39.061Z,11.67
2022-11-30T07:17:06.757Z,12.17
2022-11-30T07:19:35.138Z,11.20
2022-11-30T07:22:04.339Z,11.67
2022-11-30T07:24:49.481Z,11.00
2022-11-30T07:27:17.375Z,9.93
2022-11-30T07:29:45.084Z,10.27
2022-11-30T07:32:12.846Z,9.53
2022-11-30T07:34:40.614Z,9.90
2022-11-30T07:37:09.710Z,9.90
2022-11-30T07:39:38.058Z,9.93
2022-11-30T07:42:05.818Z,9.63
2022-11-30T07:44:33.737Z,9.70
2022-11-30T07:47:01.934Z,9.73
2022-11-30T07:49:29.614Z,8.77
2022-11-30T07:51:57.326Z,9.47
2022-11-30T07:54:26.596Z,10.03
2022-11-30T07:56:54.242Z,10.20
2022-11-30T07:59:21.990Z,10.67
2022-11-30T08:01:49.817Z,11.00
2022-11-30T08:04:17.685Z,10.27
2022-11-30T08:06:45.652Z,9.90
2022-11-30T08:09:19.222Z,10.17
2022-11-30T08:11:49.818Z,9.73
2022-11-30T08:14:18.795Z,10.37
2022-11-30T08:16:47.679Z,10.40
2022-11-30T08:19:15.733Z,10.57
2022-11-30T08:21:43.377Z,10.30
2022-11-30T08:24:12.727Z,10.33
2022-11-30T08:26:40.552Z,9.07
2022-11-30T08:29:10.971Z,9.97
2022-11-30T08:31:40.508Z,8.93
2022-11-30T08:34:10.818Z,9.07
2022-11-30T08:36:39.431Z,8.53
2022-11-30T08:39:08.556Z,8.93
2022-11-30T08:41:38.989Z,9.67
2022-11-30T08:44:06.996Z,9.63
2022-11-30T08:46:53.242Z,8.83
2022-11-30T08:49:23.561Z,9.17
2022-11-30T08:54:45.404Z,9.23
2022-11-30T08:57:13.556Z,8.47
2022-11-30T08:59:42.728Z,9.07
2022-11-30T09:02:13.324Z,9.60
2022-11-30T09:04:41.177Z,9.70
2022-11-30T09:07:09.501Z,8.70
2022-11-30T09:09:37.798Z,8.47
2022-11-30T09:12:05.777Z,9.17
2022-11-30T09:14:33.838Z,8.13
2022-11-30T09:17:01.518Z,8.03
2022-11-30T09:19:30.868Z,8.77
2022-11-30T09:21:58.591Z,8.40
2022-11-30T09:24:26.319Z,8.93
2022-11-30T09:26:56.681Z,8.57
2022-11-30T09:29:24.805Z,8.20
2022-11-30T09:31:52.639Z,9.13
2022-11-30T09:34:20.378Z,9.43
2022-11-30T09:36:49.448Z,8.87
2022-11-30T09:39:17.143Z,9.03
2022-11-30T09:42:05.224Z,8.47
2022-11-30T09:44:40.250Z,8.63
2022-11-30T09:47:17.580Z,8.70
2022-11-30T09:49:46.234Z,8.87
2022-11-30T09:52:18.883Z,8.43
2022-11-30T09:54:49.053Z,8.73
2022-11-30T09:57:25.283Z,9.17
2022-11-30T09:59:56.383Z,8.80
2022-11-30T10:02:28.140Z,8.53
2022-11-30T10:04:56.395Z,8.30
2022-11-30T10:07:37.922Z,8.80
2022-11-30T10:10:31.710Z,8.80
2022-11-30T10:13:06.862Z,8.90
2022-11-30T10:15:41.935Z,8.77
2022-11-30T10:18:13.810Z,9.37
2022-11-30T10:20:53.423Z,8.67
2022-11-30T10:23:37.202Z,8.40
2022-11-30T10:26:08.163Z,8.57
2022-11-30T10:28:49.247Z,8.27
2022-11-30T10:31:18.034Z,7.77
2022-11-30T10:33:48.100Z,8.23
2022-11-30T10:36:22.590Z,7.87
2022-11-30T10:38:54.031Z,8.40
2022-11-30T10:41:24.684Z,8.23
2022-11-30T10:43:55.796Z,8.67
2022-11-30T10:46:27.315Z,8.67
2022-11-30T10:48:57.405Z,8.80
2022-11-30T10:51:26.205Z,9.07
2022-11-30T10:53:55.518Z,9.00
2022-11-30T10:56:23.241Z,8.67
2022-11-30T10:58:55.537Z,8.83
2022-11-30T11:01:35.227Z,9.33
2022-11-30T11:04:11.721Z,8.63
2022-11-30T11:06:44.912Z,8.90
2022-11-30T11:09:35.936Z,7.93
2022-11-30T11:12:06.585Z,8.77
2022-11-30T11:14:37.990Z,9.13
2022-11-30T11:17:18.806Z,8.60
2022-11-30T11:19:48.456Z,8.97
2022-11-30T11:22:18.459Z,8.30
2022-11-30T11:24:49.229Z,8.70
2022-11-30T11:27:28.819Z,7.63
2022-11-30T11:32:58.590Z,8.57
2022-11-30T11:35:34.854Z,7.80
2022-11-30T11:38:02.712Z,8.37
2022-11-30T11:40:31.902Z,8.80
2022-11-30T11:43:00.633Z,8.40
2022-11-30T11:45:29.966Z,7.13
2022-11-30T11:47:59.835Z,7.03
2022-11-30T11:53:25.181Z,6.10
2022-11-30T11:55:57.673Z,5.93
2022-11-30T11:58:41.473Z,6.73
2022-11-30T12:01:38.775Z,6.17
2022-11-30T12:04:11.930Z,6.23
2022-11-30T12:06:41.169Z,6.53
2022-11-30T12:09:14.361Z,6.50
2022-11-30T12:11:45.817Z,6.30
2022-11-30T12:14:14.499Z,5.50
2022-11-30T12:16:54.244Z,5.20
2022-11-30T12:19:23.941Z,4.73
2022-11-30T12:21:59.212Z,5.07
2022-11-30T12:25:04.369Z,5.40
2022-11-30T12:27:42.522Z,5.10
2022-11-30T12:33:09.489Z,4.70
2022-11-30T12:35:52.439Z,4.60
2022-11-30T12:38:27.651Z,4.63
2022-11-30T12:41:01.794Z,4.80
2022-11-30T12:43:38.074Z,4.13
2022-11-30T12:46:12.948Z,4.70
2022-11-30T12:48:44.822Z,4.20
2022-11-30T12:51:18.484Z,4.17
2022-11-30T12:53:51.470Z,3.40
2022-11-30T12:56:28.183Z,3.70
2022-11-30T12:59:02.502Z,3.73
2022-11-30T13:01:41.620Z,4.30
2022-11-30T13:04:15.484Z,4.20
2022-11-30T13:06:45.884Z,4.17
2022-11-30T13:09:17.846Z,4.10
2022-11-30T13:11:48.263Z,4.60
2022-11-30T13:14:21.594Z,4.30
2022-11-30T13:16:49.766Z,4.20
2022-11-30T13:19:30.702Z,4.23
2022-11-30T13:22:01.273Z,4.20
2022-11-30T13:24:34.889Z,4.20
2022-11-30T13:27:09.510Z,3.37
2022-11-30T13:29:52.466Z,4.10
2022-11-30T13:32:55.989Z,4.10
2022-11-30T13:35:43.614Z,3.50
2022-11-30T13:41:07.608Z,4.00
2022-11-30T13:43:37.419Z,4.00
2022-11-30T13:46:15.819Z,4.10
2022-11-30T13:48:44.656Z,4.30
2022-11-30T13:51:12.694Z,4.80
2022-11-30T13:53:41.105Z,5.13
2022-11-30T13:56:33.425Z,5.53
2022-11-30T13:59:40.794Z,5.20
2022-11-30T14:05:47.137Z,5.57
2022-11-30T14:08:33.949Z,5.60
2022-11-30T14:11:44.027Z,5.33
2022-11-30T14:14:46.542Z,5.47
2022-11-30T14:17:23.014Z,4.67
2022-11-30T14:19:52.422Z,3.83
2022-11-30T14:22:22.215Z,3.50
2022-11-30T14:24:50.458Z,2.97
2022-11-30T14:27:20.354Z,2.67
2022-11-30T14:29:53.268Z,2.37
2022-11-30T14:32:27.279Z,2.23
2022-11-30T14:34:57.422Z,1.90
2022-11-30T14:37:29.308Z,2.20
2022-11-30T14:39:57.297Z,2.20
2022-11-30T14:42:26.945Z,2.00
2022-11-30T14:44:55.144Z,2.27
2022-11-30T14:47:24.575Z,2.03
2022-11-30T14:49:56.248Z,1.90
2022-11-30T14:52:39.548Z,2.30
2022-11-30T14:55:17.352Z,1.90
2022-11-30T14:57:48.172Z,2.20
2022-11-30T15:00:17.409Z,2.33
2022-11-30T15:02:45.711Z,2.10
2022-11-30T15:05:16.200Z,2.33
2022-11-30T15:07:46.899Z,2.53
2022-11-30T15:10:17.978Z,2.77
2022-11-30T15:12:46.153Z,2.70
2022-11-30T15:15:17.614Z,2.90
2022-11-30T15:17:54.516Z,2.77
2022-11-30T15:20:29.646Z,2.83
2022-11-30T15:23:01.530Z,2.63
2022-11-30T15:25:36.625Z,2.67
2022-11-30T15:28:06.277Z,2.57
2022-11-30T15:31:06.765Z,3.33
2022-11-30T15:33:37.749Z,3.30
2022-11-30T15:36:22.916Z,3.63
2022-11-30T15:38:55.270Z,5.47
2022-11-30T15:41:24.487Z,5.63
2022-11-30T15:43:53.748Z,5.63
2022-11-30T15:46:33.449Z,5.83
2022-11-30T15:49:15.199Z,6.00
2022-11-30T15:51:44.463Z,6.57
2022-11-30T15:54:13.861Z,6.60
2022-11-30T15:56:41.556Z,6.80
2022-11-30T15:59:22.815Z,6.30
2022-11-30T16:02:01.898Z,5.70
2022-11-30T16:04:30.203Z,4.57
2022-11-30T16:06:57.973Z,5.30
2022-11-30T16:09:32.565Z,4.10
2022-11-30T16:12:02.674Z,4.53
2022-11-30T16:14:30.625Z,3.97
2022-11-30T16:16:59.840Z,4.40
2022-11-30T16:19:29.309Z,3.50
2022-11-30T16:21:57.042Z,3.90
2022-11-30T16:24:24.823Z,3.50
2022-11-30T16:26:53.867Z,3.97
2022-11-30T16:29:21.559Z,3.67
2022-11-30T16:31:49.344Z,3.63
2022-11-30T16:34:17.134Z,3.40
2022-11-30T16:36:44.867Z,3.60
2022-11-30T16:39:13.718Z,3.33
2022-11-30T16:41:41.499Z,3.53
2022-11-30T16:44:13.502Z,3.60
2022-11-30T16:46:41.217Z,3.70
2022-11-30T16:49:08.949Z,4.40
2022-11-30T16:51:36.666Z,4.70
2022-11-30T16:54:05.061Z,5.07
2022-11-30T16:56:35.618Z,4.77
2022-11-30T16:59:05.091Z,5.00
2022-11-30T17:01:36.812Z,5.13
2022-11-30T17:04:14.197Z,5.03
2022-11-30T17:06:41.987Z,4.57
2022-11-30T17:09:12.064Z,4.40
2022-11-30T17:11:40.160Z,4.40
2022-11-30T17:14:08.404Z,4.00
2022-11-30T17:16:37.523Z,4.50
2022-11-30T17:19:05.261Z,4.27
2022-11-30T17:21:35.920Z,3.90
2022-11-30T17:24:04.316Z,3.60
2022-11-30T17:26:32.326Z,3.90
2022-11-30T17:29:00.263Z,4.30
2022-11-30T17:31:28.154Z,4.97
2022-11-30T17:33:57.494Z,4.77
2022-11-30T17:36:26.747Z,5.07
2022-11-30T17:38:54.418Z,5.83
2022-11-30T17:41:22.825Z,6.70
2022-11-30T17:43:52.038Z,7.93
2022-11-30T17:46:20.099Z,8.23
2022-11-30T17:48:48.299Z,8.03
2022-11-30T17:51:17.691Z,8.37
2022-11-30T17:53:45.626Z,9.23
2022-11-30T17:56:14.914Z,8.90
2022-11-30T17:58:44.753Z,8.53
2022-11-30T18:01:17.059Z,8.80
2022-11-30T18:03:45.015Z,8.37
2022-11-30T18:06:15.069Z,7.17
2022-11-30T18:08:44.380Z,6.87
2022-11-30T18:11:13.867Z,6.70
2022-11-30T18:13:42.066Z,6.23
2022-11-30T18:16:11.804Z,6.20
2022-11-30T18:18:44.372Z,5.67
2022-11-30T18:21:16.440Z,5.80
2022-11-30T18:23:45.520Z,5.00
2022-11-30T18:26:15.702Z,5.10
2022-11-30T18:28:43.666Z,5.00
2022-11-30T18:31:11.427Z,4.57
2022-11-30T18:33:39.357Z,4.70
2022-11-30T18:36:08.128Z,4.77
2022-11-30T18:38:38.361Z,4.30
2022-11-30T18:41:07.944Z,4.50
2022-11-30T18:43:35.863Z,3.73
2022-11-30T18:46:04.661Z,3.90
2022-11-30T18:48:32.466Z,3.80
2022-11-30T18:51:00.147Z,3.60
2022-11-30T18:53:27.847Z,3.40
2022-11-30T18:55:55.486Z,4.27
2022-11-30T18:58:24.596Z,4.37
2022-11-30T19:00:52.266Z,4.47
2022-11-30T19:03:19.934Z,4.23
2022-11-30T19:05:47.629Z,4.50
2022-11-30T19:08:15.653Z,4.07
2022-11-30T19:10:43.397Z,3.83
2022-11-30T19:13:11.116Z,4.17
2022-11-30T19:15:41.001Z,3.50
2022-11-30T19:18:10.638Z,3.90
2022-11-30T19:20:39.388Z,3.37
2022-11-30T19:23:07.243Z,3.83
2022-11-30T19:25:34.986Z,3.40
2022-11-30T19:28:02.664Z,3.63
2022-11-30T19:30:30.379Z,3.60
2022-11-30T19:32:59.464Z,3.10
2022-11-30T19:35:27.188Z,2.97
2022-11-30T19:37:54.938Z,2.67
2022-11-30T19:40:22.670Z,2.60
2022-11-30T19:42:50.883Z,2.77
2022-11-30T19:45:18.560Z,2.43
2022-11-30T19:47:46.224Z,2.63
2022-11-30T19:50:15.368Z,2.50
2022-11-30T19:52:43.043Z,2.40
2022-11-30T19:55:11.100Z,2.50
2022-11-30T19:57:38.791Z,1.97
2022-11-30T20:00:08.034Z,2.00
2022-11-30T20:02:36.207Z,2.03
2022-11-30T20:05:03.994Z,2.40
2022-11-30T20:07:33.170Z,2.00
2022-11-30T20:10:00.958Z,2.50
2022-11-30T20:12:28.658Z,2.53
2022-11-30T20:14:56.358Z,2.30
2022-11-30T20:17:24.032Z,2.40
2022-11-30T20:19:51.735Z,2.10
2022-11-30T20:22:19.439Z,2.13
2022-11-30T20:24:50.872Z,1.93
2022-11-30T20:27:22.245Z,1.90
2022-11-30T20:29:50.201Z,1.90
2022-11-30T20:32:17.981Z,1.97
2022-11-30T20:34:45.834Z,2.10
2022-11-30T20:37:13.597Z,2.13
2022-11-30T20:39:46.072Z,1.90
2022-11-30T20:42:15.424Z,1.93
2022-11-30T20:44:43.075Z,1.77
2022-11-30T20:47:11.271Z,1.73
2022-11-30T20:49:39.024Z,1.70
2022-11-30T20:52:06.854Z,1.60
2022-11-30T20:54:34.567Z,1.67
2022-11-30T20:57:02.262Z,1.43
2022-11-30T20:59:31.586Z,1.63
2022-11-30T21:01:59.426Z,1.20
2022-11-30T21:04:27.419Z,1.40
2022-11-30T21:06:55.687Z,1.50
2022-11-30T21:09:23.411Z,1.33
2022-11-30T21:11:51.123Z,1.43
2022-11-30T21:14:20.351Z,1.60
2022-11-30T21:16:49.417Z,1.60
2022-11-30T21:19:17.073Z,1.80
2022-11-30T21:21:44.771Z,2.03
2022-11-30T21:24:13.010Z,3.20
2022-11-30T21:26:42.010Z,3.07
2022-11-30T21:29:12.950Z,3.67
2022-11-30T21:31:40.795Z,3.70
2022-11-30T21:34:10.333Z,4.03
2022-11-30T21:36:38.069Z,3.83
2022-11-30T21:39:07.515Z,3.50
2022-11-30T21:41:35.768Z,3.57
2022-11-30T21:44:03.618Z,3.10
2022-11-30T21:46:31.382Z,3.47
2022-11-30T21:48:59.499Z,2.93
2022-11-30T21:51:29.968Z,3.30
2022-11-30T21:53:59.222Z,3.37
2022-11-30T21:56:28.757Z,2.97
2022-11-30T21:58:57.206Z,3.00
2022-11-30T22:01:26.795Z,3.40
2022-11-30T22:03:55.958Z,3.63
2022-11-30T22:06:25.078Z,3.57
2022-11-30T22:08:54.187Z,3.53
2022-11-30T22:11:23.204Z,3.53
2022-11-30T22:13:51.689Z,3.30
2022-11-30T22:16:20.161Z,3.23
2022-11-30T22:18:48.367Z,2.83
2022-11-30T22:21:17.856Z,3.00
2022-11-30T22:23:46.822Z,3.20
2022-11-30T22:26:17.668Z,2.67
2022-11-30T22:28:46.679Z,3.00
2022-11-30T22:34:08.162Z,2.83
2022-11-30T22:36:37.449Z,3.03
2022-11-30T22:39:06.779Z,2.83
2022-11-30T22:41:35.911Z,2.93
2022-11-30T22:44:03.603Z,2.50
2022-11-30T22:46:33.124Z,2.70
2022-11-30T22:49:01.724Z,2.67
2022-11-30T22:51:30.489Z,2.50
2022-11-30T22:53:59.248Z,2.40
2022-11-30T22:56:28.344Z,2.30
2022-11-30T22:58:59.982Z,2.70
2022-11-30T23:01:29.491Z,2.60
2022-11-30T23:03:58.709Z,2.37
2022-11-30T23:06:26.464Z,2.37
2022-11-30T23:08:54.176Z,2.30
2022-11-30T23:11:23.299Z,2.10
2022-11-30T23:13:51.272Z,2.80
2022-11-30T23:16:21.239Z,2.70
2022-11-30T23:18:50.609Z,2.70
2022-11-30T23:21:19.946Z,2.70
2022-11-30T23:23:48.103Z,2.47
2022-11-30T23:26:18.229Z,2.50
2022-11-30T23:28:47.233Z,2.50
2022-11-30T23:31:34.189Z,2.63
2022-11-30T23:34:06.022Z,2.60
2022-11-30T23:36:34.252Z,2.60
2022-11-30T23:39:03.514Z,2.10
2022-11-30T23:41:31.235Z,2.60
2022-11-30T23:43:58.926Z,2.77
2022-11-30T23:46:27.113Z,4.20
2022-11-30T23:48:55.630Z,5.37
2022-11-30T23:51:24.912Z,5.27
2022-11-30T23:53:52.990Z,6.17
2022-11-30T23:56:22.015Z,5.87
2022-11-30T23:58:49.821Z,5.50
